createdAt,value
2022-11-20T00:01:10.957Z,3.08
2022-11-20T00:03:37.549Z,3.42
2022-11-20T00:06:09.426Z,3.25
2022-11-20T00:08:36.760Z,3.28
2022-11-20T00:11:14.303Z,2.83
2022-11-20T00:13:42.317Z,2.90
2022-11-20T00:16:12.102Z,2.63
2022-11-20T00:18:38.605Z,2.88
2022-11-20T00:21:12.152Z,3.22
2022-11-20T00:23:38.716Z,3.80
2022-11-20T00:26:08.505Z,2.85
2022-11-20T00:28:35.663Z,3.47
2022-11-20T00:31:04.746Z,3.67
2022-11-20T00:33:31.496Z,2.92
2022-11-20T00:36:07.170Z,3.05
2022-11-20T00:38:34.057Z,3.47
2022-11-20T00:41:05.639Z,3.08
2022-11-20T00:43:32.213Z,4.38
2022-11-20T00:46:03.549Z,2.63
2022-11-20T00:48:31.066Z,3.65
2022-11-20T00:50:58.144Z,4.03
2022-11-20T00:53:24.965Z,4.32
2022-11-20T00:55:59.843Z,4.20
2022-11-20T00:58:33.950Z,3.83
2022-11-20T01:01:03.197Z,4.53
2022-11-20T01:03:33.233Z,3.53
2022-11-20T01:06:16.189Z,3.97
2022-11-20T01:08:43.613Z,4.22
2022-11-20T01:11:14.040Z,2.80
2022-11-20T01:13:42.348Z,4.05
2022-11-20T01:16:21.129Z,3.13
2022-11-20T01:18:51.106Z,3.60
2022-11-20T01:21:40.928Z,4.25
2022-11-20T01:24:09.750Z,2.45
2022-11-20T01:26:38.879Z,3.03
2022-11-20T01:29:07.001Z,3.70
2022-11-20T01:31:36.354Z,2.75
2022-11-20T01:34:08.886Z,2.80
2022-11-20T01:36:37.774Z,3.28
2022-11-20T01:39:07.540Z,3.22
2022-11-20T01:41:53.586Z,3.42
2022-11-20T01:44:24.018Z,3.97
2022-11-20T01:47:06.272Z,4.10
2022-11-20T01:49:38.634Z,3.53
2022-11-20T01:52:12.828Z,4.13
2022-11-20T01:55:04.866Z,4.20
2022-11-20T01:57:35.369Z,4.57
2022-11-20T02:00:09.428Z,3.95
2022-11-20T02:02:37.542Z,3.85
2022-11-20T02:05:20.004Z,4.22
2022-11-20T02:07:47.736Z,4.07
2022-11-20T02:10:14.315Z,3.30
2022-11-20T02:12:59.604Z,3.53
2022-11-20T02:15:30.251Z,3.85
2022-11-20T02:17:57.245Z,3.60
2022-11-20T02:20:23.806Z,4.65
2022-11-20T02:23:02.592Z,4.15
2022-11-20T02:25:31.785Z,3.58
2022-11-20T02:27:58.336Z,4.25
2022-11-20T02:30:25.214Z,3.42
2022-11-20T02:32:52.139Z,4.20
2022-11-20T02:35:21.715Z,3.13
2022-11-20T02:37:51.262Z,3.45
2022-11-20T02:40:18.382Z,3.85
2022-11-20T02:42:45.373Z,3.58
2022-11-20T02:45:13.217Z,3.55
2022-11-20T02:47:40.223Z,4.07
2022-11-20T02:50:07.670Z,5.00
2022-11-20T02:52:34.202Z,4.43
2022-11-20T02:55:01.528Z,3.95
2022-11-20T02:57:28.205Z,3.38
2022-11-20T02:59:55.766Z,4.95
2022-11-20T03:02:22.247Z,5.97
2022-11-20T03:04:48.839Z,5.88
2022-11-20T03:07:15.525Z,2.90
2022-11-20T03:09:42.168Z,4.20
2022-11-20T03:12:09.348Z,4.07
2022-11-20T03:14:35.923Z,5.07
2022-11-20T03:17:02.485Z,4.07
2022-11-20T03:19:29.154Z,2.47
2022-11-20T03:21:56.115Z,3.67
2022-11-20T03:24:22.660Z,3.55
2022-11-20T03:26:50.197Z,3.80
2022-11-20T03:29:16.715Z,2.65
2022-11-20T03:31:43.733Z,3.90
2022-11-20T03:34:11.993Z,3.38
2022-11-20T03:36:45.851Z,3.60
2022-11-20T03:39:13.202Z,3.50
2022-11-20T03:41:41.988Z,3.47
2022-11-20T03:44:11.213Z,3.10
2022-11-20T03:46:38.569Z,2.53
2022-11-20T03:49:05.221Z,3.60
2022-11-20T03:51:34.550Z,4.63
2022-11-20T03:54:03.901Z,2.70
2022-11-20T03:56:32.830Z,3.40
2022-11-20T03:58:59.915Z,3.45
2022-11-20T04:01:33.154Z,3.88
2022-11-20T04:04:00.135Z,4.30
2022-11-20T04:06:29.224Z,3.38
2022-11-20T04:08:57.728Z,3.22
2022-11-20T04:11:27.501Z,3.63
2022-11-20T04:13:56.915Z,3.83
2022-11-20T04:16:25.713Z,3.35
2022-11-20T04:19:00.738Z,3.38
2022-11-20T04:21:27.990Z,3.83
2022-11-20T04:23:56.629Z,4.43
2022-11-20T04:26:26.039Z,3.08
2022-11-20T04:28:54.266Z,2.72
2022-11-20T04:31:24.609Z,2.15
2022-11-20T04:33:52.355Z,3.50
2022-11-20T04:36:21.647Z,2.58
2022-11-20T04:38:56.552Z,3.70
2022-11-20T04:41:26.080Z,3.10
2022-11-20T04:43:59.992Z,4.40
2022-11-20T04:46:28.302Z,2.70
2022-11-20T04:48:54.874Z,2.97
2022-11-20T04:51:21.953Z,3.83
2022-11-20T04:53:49.087Z,3.72
2022-11-20T04:56:16.643Z,2.97
2022-11-20T04:58:44.464Z,4.43
2022-11-20T05:01:23.512Z,4.28
2022-11-20T05:03:51.157Z,2.85
2022-11-20T05:06:21.036Z,2.85
2022-11-20T05:08:48.743Z,2.65
2022-11-20T05:11:18.974Z,3.65
2022-11-20T05:13:46.868Z,3.03
2022-11-20T05:16:25.796Z,2.03
2022-11-20T05:18:55.494Z,2.55
2022-11-20T05:21:23.839Z,2.85
2022-11-20T05:23:51.694Z,3.45
2022-11-20T05:26:21.184Z,2.05
2022-11-20T05:28:49.060Z,2.42
2022-11-20T05:31:27.689Z,2.55
2022-11-20T05:33:57.495Z,2.17
2022-11-20T05:36:24.954Z,2.65
2022-11-20T05:38:56.689Z,2.50
2022-11-20T05:41:27.064Z,2.93
2022-11-20T05:43:54.141Z,2.85
2022-11-20T05:46:27.888Z,3.55
2022-11-20T05:48:56.225Z,3.30
2022-11-20T05:51:23.323Z,3.25
2022-11-20T05:53:49.887Z,2.47
2022-11-20T05:56:19.383Z,2.20
2022-11-20T05:58:47.291Z,2.47
2022-11-20T06:01:20.755Z,2.28
2022-11-20T06:03:48.794Z,3.42
2022-11-20T06:06:17.091Z,2.78
2022-11-20T06:08:44.510Z,1.80
2022-11-20T06:11:13.530Z,2.90
2022-11-20T06:13:42.287Z,2.80
2022-11-20T06:16:09.546Z,2.15
2022-11-20T06:18:36.065Z,3.25
2022-11-20T06:21:17.289Z,2.40
2022-11-20T06:23:44.291Z,2.38
2022-11-20T06:26:15.453Z,2.67
2022-11-20T06:28:42.538Z,2.60
2022-11-20T06:31:12.068Z,2.08
2022-11-20T06:33:38.876Z,2.15
2022-11-20T06:36:10.441Z,2.20
2022-11-20T06:38:37.915Z,1.90
2022-11-20T06:41:06.233Z,2.65
2022-11-20T06:43:32.798Z,1.77
2022-11-20T06:46:00.225Z,2.40
2022-11-20T06:48:28.195Z,3.17
2022-11-20T06:50:54.786Z,2.42
2022-11-20T06:53:22.332Z,2.05
2022-11-20T06:55:50.109Z,2.83
2022-11-20T06:58:17.500Z,1.85
2022-11-20T07:00:45.284Z,2.00
2022-11-20T07:03:13.015Z,3.38
2022-11-20T07:05:40.978Z,2.50
2022-11-20T07:08:08.007Z,2.35
2022-11-20T07:10:34.604Z,2.28
2022-11-20T07:13:01.185Z,2.05
2022-11-20T07:15:28.670Z,2.25
2022-11-20T07:17:55.673Z,2.17
2022-11-20T07:20:22.760Z,2.40
2022-11-20T07:22:55.333Z,3.72
2022-11-20T07:25:22.054Z,2.63
2022-11-20T07:27:49.326Z,2.10
2022-11-20T07:30:19.046Z,6.15
2022-11-20T07:32:52.886Z,2.78
2022-11-20T07:35:20.029Z,2.55
2022-11-20T07:37:46.818Z,2.25
2022-11-20T07:40:14.730Z,2.28
2022-11-20T07:42:52.411Z,2.13
2022-11-20T07:45:20.395Z,2.00
2022-11-20T07:47:46.935Z,2.80
2022-11-20T07:50:14.517Z,3.58
2022-11-20T07:52:41.570Z,3.28
2022-11-20T07:55:09.376Z,2.55
2022-11-20T07:57:37.582Z,3.00
2022-11-20T08:00:06.707Z,3.13
2022-11-20T08:02:33.294Z,3.08
2022-11-20T08:04:59.819Z,3.78
2022-11-20T08:07:26.981Z,3.35
2022-11-20T08:09:53.553Z,2.60
2022-11-20T08:12:40.632Z,3.65
2022-11-20T08:15:12.751Z,3.30
2022-11-20T08:17:40.036Z,4.38
2022-11-20T08:20:06.980Z,3.15
2022-11-20T08:22:33.537Z,3.78
2022-11-20T08:25:00.109Z,4.78
2022-11-20T08:27:27.149Z,2.83
2022-11-20T08:29:53.738Z,2.97
2022-11-20T08:32:20.757Z,3.05
2022-11-20T08:34:47.501Z,3.35
2022-11-20T08:37:13.964Z,3.80
2022-11-20T08:39:40.459Z,4.53
2022-11-20T08:42:09.798Z,3.78
2022-11-20T08:44:36.374Z,3.42
2022-11-20T08:47:03.427Z,2.65
2022-11-20T08:49:30.385Z,4.45
2022-11-20T08:51:58.037Z,3.90
2022-11-20T08:54:24.617Z,3.67
2022-11-20T08:56:51.187Z,5.45
2022-11-20T08:59:31.590Z,6.97
2022-11-20T09:02:04.253Z,6.70
2022-11-20T09:04:30.784Z,14.40
2022-11-20T09:06:57.420Z,16.35
2022-11-20T09:09:24.692Z,14.57
2022-11-20T09:11:51.505Z,21.02
2022-11-20T09:14:18.020Z,20.15
2022-11-20T09:16:46.317Z,16.45
2022-11-20T09:19:34.568Z,19.33
2022-11-20T09:22:00.978Z,21.35
2022-11-20T09:24:28.873Z,20.65
2022-11-20T09:26:55.368Z,14.93
2022-11-20T09:29:22.867Z,12.60
2022-11-20T09:31:49.723Z,22.23
2022-11-20T09:34:16.685Z,15.75
2022-11-20T09:36:43.196Z,16.83
2022-11-20T09:39:09.706Z,11.63
2022-11-20T09:41:59.837Z,12.48
2022-11-20T09:44:39.630Z,18.23
2022-11-20T09:47:15.741Z,13.65
2022-11-20T09:49:57.426Z,17.38
2022-11-20T09:52:42.353Z,13.32
2022-11-20T09:55:14.409Z,17.40
2022-11-20T09:57:45.422Z,16.15
2022-11-20T10:00:15.209Z,14.70
2022-11-20T10:02:48.950Z,10.32
2022-11-20T10:05:22.219Z,11.90
2022-11-20T10:07:57.678Z,12.13
2022-11-20T10:10:41.023Z,11.30
2022-11-20T10:13:28.070Z,9.50
2022-11-20T10:16:10.183Z,10.55
2022-11-20T10:18:36.633Z,12.25
2022-11-20T10:21:29.292Z,8.18
2022-11-20T10:24:25.779Z,13.25
2022-11-20T10:27:23.917Z,11.63
2022-11-20T10:30:03.656Z,11.27
2022-11-20T10:32:41.524Z,9.77
2022-11-20T10:35:23.273Z,9.05
2022-11-20T10:37:56.915Z,10.50
2022-11-20T10:40:43.763Z,8.00
2022-11-20T10:43:17.937Z,8.43
2022-11-20T10:45:58.799Z,10.07
2022-11-20T10:48:27.461Z,9.73
2022-11-20T10:51:15.932Z,7.50
2022-11-20T10:53:57.616Z,7.05
2022-11-20T10:56:48.309Z,7.22
2022-11-20T10:59:42.892Z,6.53
2022-11-20T11:02:26.163Z,7.68
2022-11-20T11:04:54.888Z,8.80
2022-11-20T11:07:41.241Z,8.82
2022-11-20T11:12:49.283Z,7.45
2022-11-20T11:15:28.207Z,8.15
2022-11-20T11:17:54.865Z,4.72
2022-11-20T11:20:24.171Z,8.13
2022-11-20T11:22:59.353Z,9.52
2022-11-20T11:25:28.057Z,9.38
2022-11-20T11:27:57.225Z,7.18
2022-11-20T11:30:25.685Z,4.97
2022-11-20T11:33:03.006Z,6.53
2022-11-20T11:35:29.804Z,8.77
2022-11-20T11:38:08.445Z,7.35
2022-11-20T11:40:38.414Z,6.60
2022-11-20T11:43:38.493Z,5.00
2022-11-20T11:46:21.913Z,6.72
2022-11-20T11:49:10.186Z,8.57
2022-11-20T11:52:08.754Z,7.10
2022-11-20T11:54:41.994Z,7.97
2022-11-20T11:57:24.241Z,7.47
2022-11-20T12:00:13.578Z,5.70
2022-11-20T12:02:46.245Z,6.38
2022-11-20T12:05:25.954Z,8.02
2022-11-20T12:08:18.683Z,6.55
2022-11-20T12:10:54.691Z,5.95
2022-11-20T12:13:33.553Z,5.40
2022-11-20T12:16:01.696Z,6.22
2022-11-20T12:18:29.621Z,5.00
2022-11-20T12:21:02.710Z,7.03
2022-11-20T12:23:53.812Z,5.85
2022-11-20T12:26:32.360Z,6.63
2022-11-20T12:29:07.752Z,6.85
2022-11-20T12:31:43.076Z,7.68
2022-11-20T12:34:33.870Z,5.20
2022-11-20T12:37:31.841Z,4.55
2022-11-20T12:40:43.050Z,6.05
2022-11-20T12:44:03.979Z,7.03
2022-11-20T12:46:42.412Z,5.88
2022-11-20T12:49:19.989Z,5.32
2022-11-20T12:51:56.361Z,8.10
2022-11-20T12:54:45.930Z,7.10
2022-11-20T12:57:41.511Z,8.05
2022-11-20T13:00:15.569Z,6.22
2022-11-20T13:03:03.655Z,5.80
2022-11-20T13:05:45.721Z,5.72
2022-11-20T13:08:21.377Z,6.65
2022-11-20T13:10:56.786Z,5.20
2022-11-20T13:13:23.236Z,5.90
2022-11-20T13:16:01.874Z,6.82
2022-11-20T13:18:29.268Z,6.15
2022-11-20T13:20:56.500Z,7.03
2022-11-20T13:23:29.094Z,5.88
2022-11-20T13:26:19.009Z,5.05
2022-11-20T13:28:48.005Z,6.10
2022-11-20T13:31:36.001Z,5.38
2022-11-20T13:34:06.174Z,6.72
2022-11-20T13:36:33.509Z,5.63
2022-11-20T13:39:00.375Z,7.10
2022-11-20T13:41:34.948Z,6.75
2022-11-20T13:44:24.736Z,6.88
2022-11-20T13:46:52.003Z,7.00
2022-11-20T13:49:45.228Z,5.40
2022-11-20T13:52:29.686Z,5.30
2022-11-20T13:55:22.866Z,5.30
2022-11-20T13:58:15.989Z,4.93
2022-11-20T14:00:58.125Z,5.38
2022-11-20T14:06:26.976Z,5.60
2022-11-20T14:08:54.032Z,7.40
2022-11-20T14:11:25.264Z,5.40
2022-11-20T14:14:14.114Z,7.38
2022-11-20T14:16:40.657Z,9.02
2022-11-20T14:19:22.752Z,7.68
2022-11-20T14:21:52.412Z,5.35
2022-11-20T14:24:24.635Z,4.32
2022-11-20T14:26:52.898Z,5.60
2022-11-20T14:29:29.236Z,6.13
2022-11-20T14:31:57.799Z,6.93
2022-11-20T14:34:28.565Z,6.55
2022-11-20T14:36:59.706Z,5.32
2022-11-20T14:39:42.676Z,4.82
2022-11-20T14:42:26.602Z,5.93
2022-11-20T14:44:58.127Z,5.78
2022-11-20T14:47:28.351Z,4.28
2022-11-20T14:49:56.872Z,3.88
2022-11-20T14:52:26.164Z,5.97
2022-11-20T14:54:54.949Z,4.30
2022-11-20T14:57:27.605Z,5.28
2022-11-20T15:00:12.914Z,6.30
2022-11-20T15:02:43.841Z,3.90
2022-11-20T15:05:10.659Z,5.82
2022-11-20T15:07:41.250Z,4.82
2022-11-20T15:10:24.382Z,4.47
2022-11-20T15:12:53.256Z,4.35
2022-11-20T15:15:34.569Z,4.55
2022-11-20T15:18:01.581Z,4.30
2022-11-20T15:20:33.669Z,6.15
2022-11-20T15:23:00.312Z,5.28
2022-11-20T15:25:26.849Z,5.75
2022-11-20T15:27:57.282Z,4.95
2022-11-20T15:30:24.974Z,6.75
2022-11-20T15:32:51.844Z,5.03
2022-11-20T15:35:18.379Z,7.55
2022-11-20T15:37:44.993Z,4.85
2022-11-20T15:40:11.942Z,3.30
2022-11-20T15:42:38.518Z,5.00
2022-11-20T15:45:05.731Z,5.28
2022-11-20T15:47:35.586Z,6.63
2022-11-20T15:50:02.730Z,6.93
2022-11-20T15:52:36.375Z,5.88
2022-11-20T15:55:11.611Z,4.65
2022-11-20T15:57:38.128Z,5.18
2022-11-20T16:00:05.328Z,4.63
2022-11-20T16:02:31.896Z,5.28
2022-11-20T16:04:58.437Z,3.97
2022-11-20T16:07:25.510Z,5.80
2022-11-20T16:09:52.073Z,4.30
2022-11-20T16:12:38.550Z,4.03
2022-11-20T16:15:24.117Z,4.63
2022-11-20T16:17:50.664Z,4.47
2022-11-20T16:20:17.645Z,4.68
2022-11-20T16:22:44.192Z,5.47
2022-11-20T16:25:10.702Z,4.35
2022-11-20T16:27:37.183Z,3.75
2022-11-20T16:30:03.987Z,4.07
2022-11-20T16:32:31.004Z,4.90
2022-11-20T16:34:58.071Z,4.68
2022-11-20T16:37:25.057Z,4.68
2022-11-20T16:39:51.625Z,3.97
2022-11-20T16:42:18.196Z,4.18
2022-11-20T16:44:47.506Z,3.63
2022-11-20T16:47:14.102Z,3.92
2022-11-20T16:49:40.724Z,4.63
2022-11-20T16:52:07.824Z,4.40
2022-11-20T16:54:34.841Z,6.57
2022-11-20T16:57:01.402Z,4.38
2022-11-20T16:59:27.886Z,4.32
2022-11-20T17:01:54.441Z,4.95
2022-11-20T17:04:21.755Z,5.70
2022-11-20T17:06:48.981Z,4.28
2022-11-20T17:09:17.921Z,7.93
2022-11-20T17:11:44.549Z,4.93
2022-11-20T17:14:12.491Z,5.05
2022-11-20T17:16:39.291Z,5.60
2022-11-20T17:19:06.273Z,5.68
2022-11-20T17:21:36.396Z,4.22
2022-11-20T17:24:04.787Z,5.25
2022-11-20T17:26:31.937Z,4.15
2022-11-20T17:29:06.358Z,4.47
2022-11-20T17:31:35.391Z,4.97
2022-11-20T17:34:03.021Z,3.97
2022-11-20T17:36:31.212Z,5.35
2022-11-20T17:38:58.382Z,4.30
2022-11-20T17:41:27.039Z,4.55
2022-11-20T17:44:00.897Z,3.92
2022-11-20T17:46:35.156Z,3.65
2022-11-20T17:49:03.093Z,5.47
2022-11-20T17:51:32.429Z,4.18
2022-11-20T17:54:01.307Z,4.28
2022-11-20T17:56:53.781Z,6.45
2022-11-20T17:59:20.616Z,5.72
2022-11-20T18:01:47.404Z,3.92
2022-11-20T18:04:14.106Z,4.05
2022-11-20T18:06:42.611Z,3.33
2022-11-20T18:09:09.352Z,3.33
2022-11-20T18:11:38.905Z,7.38
2022-11-20T18:14:34.106Z,4.85
2022-11-20T18:17:09.457Z,5.25
2022-11-20T18:19:55.269Z,4.50
2022-11-20T18:22:28.233Z,3.95
2022-11-20T18:24:55.209Z,5.20
2022-11-20T18:27:23.181Z,4.88
2022-11-20T18:29:52.088Z,3.53
2022-11-20T18:32:20.828Z,6.93
2022-11-20T18:34:47.412Z,9.77
2022-11-20T18:37:16.295Z,4.57
2022-11-20T18:39:43.680Z,5.05
2022-11-20T18:42:33.182Z,6.70
2022-11-20T18:45:00.371Z,3.60
2022-11-20T18:47:31.825Z,4.85
2022-11-20T18:50:00.945Z,5.18
2022-11-20T18:52:35.309Z,7.97
2022-11-20T18:55:03.641Z,4.80
2022-11-20T18:57:30.689Z,5.25
2022-11-20T19:00:06.371Z,3.95
2022-11-20T19:02:41.084Z,4.50
2022-11-20T19:05:09.828Z,4.28
2022-11-20T19:07:36.515Z,3.38
2022-11-20T19:10:04.196Z,6.93
2022-11-20T19:12:31.297Z,3.83
2022-11-20T19:14:57.984Z,3.15
2022-11-20T19:17:25.075Z,5.18
2022-11-20T19:19:52.198Z,4.35
2022-11-20T19:22:19.261Z,6.85
2022-11-20T19:24:46.038Z,4.18
2022-11-20T19:27:12.610Z,5.68
2022-11-20T19:29:39.231Z,3.72
2022-11-20T19:32:05.942Z,4.28
2022-11-20T19:34:33.423Z,3.00
2022-11-20T19:37:01.064Z,4.18
2022-11-20T19:39:27.803Z,4.50
2022-11-20T19:41:54.432Z,4.35
2022-11-20T19:44:21.074Z,3.83
2022-11-20T19:46:47.593Z,6.13
2022-11-20T19:49:14.896Z,3.47
2022-11-20T19:51:47.777Z,4.15
2022-11-20T19:54:14.889Z,3.75
2022-11-20T19:56:41.457Z,3.67
2022-11-20T19:59:08.141Z,4.20
2022-11-20T20:01:35.393Z,3.75
2022-11-20T20:04:03.584Z,3.72
2022-11-20T20:06:31.077Z,2.83
2022-11-20T20:09:04.160Z,4.05
2022-11-20T20:11:33.169Z,3.85
2022-11-20T20:14:10.638Z,5.03
2022-11-20T20:16:37.683Z,4.10
2022-11-20T20:19:05.942Z,4.95
2022-11-20T20:21:34.985Z,4.00
2022-11-20T20:24:02.282Z,3.45
2022-11-20T20:26:31.496Z,3.88
2022-11-20T20:28:58.388Z,3.33
2022-11-20T20:31:27.583Z,3.47
2022-11-20T20:33:54.527Z,4.43
2022-11-20T20:36:23.371Z,3.97
2022-11-20T20:38:54.450Z,4.07
2022-11-20T20:41:23.345Z,2.60
2022-11-20T20:44:08.513Z,3.30
2022-11-20T20:46:35.266Z,3.55
2022-11-20T20:49:01.889Z,3.00
2022-11-20T20:51:28.924Z,3.17
2022-11-20T20:53:55.709Z,4.43
2022-11-20T20:56:22.287Z,4.07
2022-11-20T20:58:49.796Z,4.70
2022-11-20T21:01:18.442Z,3.67
2022-11-20T21:03:45.058Z,6.20
2022-11-20T21:06:13.023Z,3.47
2022-11-20T21:08:40.912Z,3.20
2022-11-20T21:11:17.310Z,3.78
2022-11-20T21:13:46.101Z,3.72
2022-11-20T21:16:14.580Z,3.22
2022-11-20T21:18:41.788Z,3.47
2022-11-20T21:21:30.521Z,5.95
2022-11-20T21:23:57.277Z,3.97
2022-11-20T21:26:23.905Z,3.97
2022-11-20T21:28:51.055Z,2.88
2022-11-20T21:31:27.276Z,3.67
2022-11-20T21:33:55.740Z,3.45
2022-11-20T21:36:30.285Z,2.58
2022-11-20T21:39:01.664Z,3.90
2022-11-20T21:41:30.571Z,3.35
2022-11-20T21:46:46.373Z,3.70
2022-11-20T21:49:14.506Z,3.38
2022-11-20T21:51:41.595Z,4.22
2022-11-20T21:54:10.270Z,3.00
2022-11-20T21:56:36.941Z,4.45
2022-11-20T21:59:03.983Z,3.08
2022-11-20T22:01:31.284Z,3.65
2022-11-20T22:04:01.036Z,4.63
2022-11-20T22:06:35.323Z,3.50
2022-11-20T22:09:03.013Z,3.78
2022-11-20T22:11:30.670Z,3.92
2022-11-20T22:14:15.852Z,2.83
2022-11-20T22:16:42.462Z,3.88
2022-11-20T22:19:09.703Z,3.00
2022-11-20T22:21:39.529Z,2.65
2022-11-20T22:24:06.217Z,2.92
2022-11-20T22:26:39.860Z,3.15
2022-11-20T22:29:08.195Z,3.22
2022-11-20T22:31:34.699Z,2.92
2022-11-20T22:34:02.371Z,3.28
2022-11-20T22:36:30.657Z,2.97
2022-11-20T22:38:58.426Z,4.20
2022-11-20T22:41:27.719Z,4.75
2022-11-20T22:43:56.575Z,3.20
2022-11-20T22:46:24.070Z,3.88
2022-11-20T22:48:56.919Z,3.33
2022-11-20T22:51:26.457Z,3.97
2022-11-20T22:53:53.875Z,5.32
2022-11-20T22:56:21.157Z,3.10
2022-11-20T22:58:49.834Z,3.40
2022-11-20T23:01:34.511Z,3.25
2022-11-20T23:04:04.336Z,2.85
2022-11-20T23:06:34.406Z,3.53
2022-11-20T23:09:01.400Z,4.63
2022-11-20T23:11:29.916Z,3.08
2022-11-20T23:13:59.398Z,3.83
2022-11-20T23:16:28.372Z,2.85
2022-11-20T23:19:05.214Z,3.83
2022-11-20T23:21:32.299Z,2.55
2022-11-20T23:24:00.156Z,3.28
2022-11-20T23:26:31.723Z,3.65
2022-11-20T23:29:00.048Z,3.38
2022-11-20T23:31:28.952Z,3.75
2022-11-20T23:33:55.891Z,3.05
2022-11-20T23:36:23.104Z,3.53
2022-11-20T23:38:50.315Z,3.67
2022-11-20T23:41:17.777Z,2.90
2022-11-20T23:43:44.747Z,3.47
2022-11-20T23:46:16.175Z,3.08
2022-11-20T23:48:44.936Z,2.80
2022-11-20T23:51:11.705Z,2.53
2022-11-20T23:53:38.663Z,3.58
2022-11-20T23:56:06.067Z,2.83
2022-11-20T23:58:37.874Z,3.17
